createdAt,value
2019-02-10T00:00:04.965Z,959.96
2019-02-10T00:01:04.908Z,959.96
2019-02-10T00:02:04.818Z,959.95
2019-02-10T00:03:04.771Z,959.93
2019-02-10T00:04:04.685Z,959.94
2019-02-10T00:05:04.625Z,959.98
2019-02-10T00:06:04.563Z,960.03
2019-02-10T00:07:04.495Z,960.05
2019-02-10T00:08:04.424Z,960.04
2019-02-10T00:09:04.353Z,960.04
2019-02-10T00:10:04.308Z,959.97
2019-02-10T00:11:04.224Z,959.95
2019-02-10T00:12:04.168Z,959.97
2019-02-10T00:13:04.099Z,959.94
2019-02-10T00:14:04.034Z,959.92
2019-02-10T00:15:03.974Z,959.93
2019-02-10T00:16:03.894Z,959.88
2019-02-10T00:17:03.842Z,959.82
2019-02-10T00:18:03.794Z,959.80
2019-02-10T00:19:03.698Z,959.82
2019-02-10T00:20:03.632Z,959.81
2019-02-10T00:21:03.566Z,959.83
2019-02-10T00:22:03.504Z,959.80
2019-02-10T00:23:03.430Z,959.76
2019-02-10T00:24:03.366Z,959.76
2019-02-10T00:25:03.299Z,959.73
2019-02-10T00:26:03.236Z,959.69
2019-02-10T00:27:03.173Z,959.71
2019-02-10T00:28:03.106Z,959.68
2019-02-10T00:29:03.055Z,959.63
2019-02-10T00:30:02.971Z,959.60
2019-02-10T00:31:02.904Z,959.62
2019-02-10T00:32:02.834Z,959.60
2019-02-10T00:33:02.774Z,959.64
2019-02-10T00:34:02.707Z,959.56
2019-02-10T00:35:02.641Z,959.62
2019-02-10T00:36:02.581Z,959.59
2019-02-10T00:37:02.504Z,959.60
2019-02-10T00:38:02.440Z,959.55
2019-02-10T00:39:02.374Z,959.60
2019-02-10T00:40:02.311Z,959.56
2019-02-10T00:41:02.246Z,959.57
2019-02-10T00:42:02.187Z,959.54
2019-02-10T00:43:02.120Z,959.49
2019-02-10T00:44:02.042Z,959.48
2019-02-10T00:45:01.993Z,959.48
2019-02-10T00:46:01.913Z,959.44
2019-02-10T00:47:01.859Z,959.39
2019-02-10T00:48:01.782Z,959.36
2019-02-10T00:49:01.714Z,959.46
2019-02-10T00:50:01.672Z,959.46
2019-02-10T00:51:01.582Z,959.46
2019-02-10T00:52:01.518Z,959.48
2019-02-10T00:53:01.461Z,959.50
2019-02-10T00:54:01.382Z,959.45
2019-02-10T00:55:01.322Z,959.49
2019-02-10T00:56:01.254Z,959.47
2019-02-10T00:57:01.187Z,959.50
2019-02-10T00:58:01.122Z,959.46
2019-02-10T00:59:01.056Z,959.39
2019-02-10T01:00:01.013Z,959.43
2019-02-10T01:01:00.939Z,959.40
2019-02-10T01:02:00.859Z,959.34
2019-02-10T01:03:00.791Z,959.36
2019-02-10T01:04:00.740Z,959.33
2019-02-10T01:05:00.657Z,959.32
2019-02-10T01:06:00.594Z,959.29
2019-02-10T01:07:00.526Z,959.31
2019-02-10T01:08:00.460Z,959.35
2019-02-10T01:09:00.396Z,959.32
2019-02-10T01:10:00.329Z,959.34
2019-02-10T01:11:00.267Z,959.28
2019-02-10T01:12:00.194Z,959.26
2019-02-10T01:13:00.130Z,959.23
2019-02-10T01:14:00.063Z,959.15
2019-02-10T01:14:59.999Z,959.16
2019-02-10T01:15:59.937Z,959.15
2019-02-10T01:16:59.864Z,959.16
2019-02-10T01:17:59.802Z,959.20
2019-02-10T01:18:59.734Z,959.17
2019-02-10T01:19:59.668Z,959.14
2019-02-10T01:20:59.604Z,959.16
2019-02-10T01:21:59.535Z,959.11
2019-02-10T01:22:59.470Z,959.11
2019-02-10T01:23:59.403Z,959.09
2019-02-10T01:24:59.339Z,959.11
2019-02-10T01:25:59.270Z,959.09
2019-02-10T01:26:59.218Z,959.08
2019-02-10T01:27:59.140Z,959.03
2019-02-10T01:28:59.075Z,958.95
2019-02-10T01:29:59.016Z,958.93
2019-02-10T01:30:58.939Z,958.87
2019-02-10T01:31:58.878Z,958.94
2019-02-10T01:32:58.811Z,958.87
2019-02-10T01:33:58.741Z,958.87
2019-02-10T01:34:58.678Z,958.86
2019-02-10T01:35:58.607Z,958.86
2019-02-10T01:36:58.543Z,958.82
2019-02-10T01:37:58.477Z,958.84
2019-02-10T01:38:58.413Z,958.87
2019-02-10T01:39:58.342Z,958.83
2019-02-10T01:40:58.299Z,958.79
2019-02-10T01:41:58.213Z,958.78
2019-02-10T01:42:58.148Z,958.79
2019-02-10T01:43:58.083Z,958.82
2019-02-10T01:44:58.038Z,958.79
2019-02-10T01:45:57.952Z,958.72
2019-02-10T01:46:57.892Z,958.74
2019-02-10T01:47:57.859Z,958.71
2019-02-10T01:48:57.755Z,958.66
2019-02-10T01:49:57.687Z,958.63
2019-02-10T01:50:57.629Z,958.62
2019-02-10T01:51:57.553Z,958.61
2019-02-10T01:52:57.488Z,958.64
2019-02-10T01:53:57.427Z,958.55
2019-02-10T01:54:57.361Z,958.54
2019-02-10T01:55:57.304Z,958.54
2019-02-10T01:56:57.223Z,958.58
2019-02-10T01:57:57.162Z,958.55
2019-02-10T01:58:57.090Z,958.56
2019-02-10T01:59:57.025Z,958.50
2019-02-10T02:00:56.965Z,958.52
2019-02-10T02:01:56.892Z,958.47
2019-02-10T02:02:56.832Z,958.49
2019-02-10T02:03:56.761Z,958.45
2019-02-10T02:04:56.694Z,958.43
2019-02-10T02:05:56.629Z,958.42
2019-02-10T02:06:57.930Z,958.43
2019-02-10T02:07:56.497Z,958.43
2019-02-10T02:08:56.433Z,958.42
2019-02-10T02:09:56.363Z,958.36
2019-02-10T02:10:56.299Z,958.33
2019-02-10T02:11:56.229Z,958.35
2019-02-10T02:12:56.165Z,958.33
2019-02-10T02:13:56.101Z,958.31
2019-02-10T02:14:56.037Z,958.33
2019-02-10T02:15:55.970Z,958.25
2019-02-10T02:16:55.914Z,958.22
2019-02-10T02:17:55.831Z,958.17
2019-02-10T02:18:55.770Z,958.12
2019-02-10T02:19:55.703Z,958.13
2019-02-10T02:20:55.635Z,958.08
2019-02-10T02:21:55.574Z,958.07
2019-02-10T02:22:55.511Z,958.08
2019-02-10T02:23:55.453Z,958.08
2019-02-10T02:24:55.369Z,958.03
2019-02-10T02:25:55.302Z,958.04
2019-02-10T02:26:55.239Z,957.99
2019-02-10T02:27:55.174Z,957.96
2019-02-10T02:28:55.108Z,957.94
2019-02-10T02:29:55.046Z,957.98
2019-02-10T02:30:54.983Z,957.93
2019-02-10T02:31:54.911Z,957.95
2019-02-10T02:32:54.844Z,957.94
2019-02-10T02:33:54.778Z,957.87
2019-02-10T02:34:54.713Z,957.92
2019-02-10T02:35:54.649Z,957.96
2019-02-10T02:36:54.583Z,957.95
2019-02-10T02:37:54.543Z,957.94
2019-02-10T02:38:54.442Z,957.92
2019-02-10T02:39:54.377Z,957.87
2019-02-10T02:40:54.313Z,957.88
2019-02-10T02:41:54.247Z,957.85
2019-02-10T02:42:54.182Z,957.84
2019-02-10T02:43:54.116Z,957.83
2019-02-10T02:44:54.054Z,957.87
2019-02-10T02:45:53.979Z,957.79
2019-02-10T02:46:53.918Z,957.83
2019-02-10T02:47:53.852Z,957.88
2019-02-10T02:48:53.799Z,957.83
2019-02-10T02:49:53.728Z,957.86
2019-02-10T02:50:53.656Z,957.85
2019-02-10T02:51:53.589Z,957.82
2019-02-10T02:52:53.520Z,957.79
2019-02-10T02:53:53.460Z,957.73
2019-02-10T02:54:53.388Z,957.68
2019-02-10T02:55:53.321Z,957.62
2019-02-10T02:56:53.261Z,957.64
2019-02-10T02:57:53.201Z,957.60
2019-02-10T02:58:53.144Z,957.61
2019-02-10T02:59:53.056Z,957.56
2019-02-10T03:00:52.992Z,957.54
2019-02-10T03:01:52.924Z,957.51
2019-02-10T03:02:52.858Z,957.50
2019-02-10T03:03:52.795Z,957.48
2019-02-10T03:04:52.725Z,957.49
2019-02-10T03:05:52.660Z,957.45
2019-02-10T03:06:52.593Z,957.44
2019-02-10T03:07:52.527Z,957.35
2019-02-10T03:08:52.459Z,957.38
2019-02-10T03:09:52.394Z,957.42
2019-02-10T03:10:52.329Z,957.38
2019-02-10T03:11:52.271Z,957.36
2019-02-10T03:12:52.197Z,957.27
2019-02-10T03:13:52.129Z,957.20
2019-02-10T03:14:52.066Z,957.16
2019-02-10T03:15:52.008Z,957.18
2019-02-10T03:16:51.944Z,957.21
2019-02-10T03:17:51.876Z,957.12
2019-02-10T03:18:53.265Z,957.09
2019-02-10T03:19:51.752Z,957.06
2019-02-10T03:20:51.664Z,957.08
2019-02-10T03:21:51.603Z,957.04
2019-02-10T03:22:51.536Z,957.06
2019-02-10T03:23:51.469Z,957.05
2019-02-10T03:24:51.407Z,957.00
2019-02-10T03:25:51.353Z,957.03
2019-02-10T03:26:51.283Z,957.00
2019-02-10T03:27:51.201Z,956.99
2019-02-10T03:28:51.137Z,957.02
2019-02-10T03:29:51.072Z,957.03
2019-02-10T03:30:51.013Z,957.05
2019-02-10T03:31:50.944Z,957.05
2019-02-10T03:32:50.880Z,957.02
2019-02-10T03:33:50.822Z,957.01
2019-02-10T03:34:50.737Z,956.95
2019-02-10T03:35:50.677Z,956.87
2019-02-10T03:36:50.605Z,956.92
2019-02-10T03:37:50.539Z,956.94
2019-02-10T03:38:50.481Z,956.88
2019-02-10T03:39:50.415Z,956.86
2019-02-10T03:40:50.341Z,956.88
2019-02-10T03:41:50.276Z,956.93
2019-02-10T03:42:50.210Z,956.98
2019-02-10T03:43:50.143Z,956.89
2019-02-10T03:44:50.077Z,956.90
2019-02-10T03:45:50.010Z,956.90
2019-02-10T03:46:49.956Z,956.85
2019-02-10T03:47:49.878Z,956.87
2019-02-10T03:48:49.811Z,956.82
2019-02-10T03:49:49.748Z,956.81
2019-02-10T03:50:49.676Z,956.70
2019-02-10T03:51:49.615Z,956.71
2019-02-10T03:52:49.551Z,956.73
2019-02-10T03:53:49.480Z,956.72
2019-02-10T03:54:49.438Z,956.69
2019-02-10T03:55:49.344Z,956.71
2019-02-10T03:56:49.280Z,956.76
2019-02-10T03:57:49.215Z,956.76
2019-02-10T03:58:49.154Z,956.75
2019-02-10T03:59:49.098Z,956.75
2019-02-10T04:00:49.029Z,956.77
2019-02-10T04:01:48.972Z,956.77
2019-02-10T04:02:48.881Z,956.78
2019-02-10T04:03:48.817Z,956.74
2019-02-10T04:04:48.769Z,956.74
2019-02-10T04:05:48.689Z,956.76
2019-02-10T04:06:48.625Z,956.73
2019-02-10T04:07:48.558Z,956.64
2019-02-10T04:08:48.494Z,956.62
2019-02-10T04:09:48.428Z,956.60
2019-02-10T04:10:48.358Z,956.56
2019-02-10T04:11:48.317Z,956.52
2019-02-10T04:12:48.225Z,956.55
2019-02-10T04:13:48.167Z,956.60
2019-02-10T04:14:48.129Z,956.56
2019-02-10T04:15:48.048Z,956.51
2019-02-10T04:16:47.963Z,956.46
2019-02-10T04:17:47.889Z,956.45
2019-02-10T04:18:47.822Z,956.35
2019-02-10T04:19:47.757Z,956.34
2019-02-10T04:20:47.686Z,956.37
2019-02-10T04:21:47.663Z,956.36
2019-02-10T04:22:47.563Z,956.34
2019-02-10T04:23:47.490Z,956.29
2019-02-10T04:24:47.430Z,956.29
2019-02-10T04:25:47.367Z,956.32
2019-02-10T04:26:47.300Z,956.17
2019-02-10T04:27:47.235Z,956.16
2019-02-10T04:28:47.159Z,956.17
2019-02-10T04:29:47.129Z,956.16
2019-02-10T04:30:47.027Z,956.15
2019-02-10T04:31:46.961Z,956.10
2019-02-10T04:32:46.895Z,956.04
2019-02-10T04:33:46.835Z,956.00
2019-02-10T04:34:46.757Z,955.98
2019-02-10T04:35:46.700Z,955.94
2019-02-10T04:36:46.628Z,955.91
2019-02-10T04:37:46.663Z,955.84
2019-02-10T04:38:46.497Z,955.86
2019-02-10T04:39:46.428Z,955.86
2019-02-10T04:40:46.378Z,955.81
2019-02-10T04:41:46.292Z,955.78
2019-02-10T04:42:46.232Z,955.72
2019-02-10T04:43:46.165Z,955.70
2019-02-10T04:44:46.105Z,955.66
2019-02-10T04:45:46.039Z,955.66
2019-02-10T04:46:45.977Z,955.63
2019-02-10T04:47:45.966Z,955.61
2019-02-10T04:48:45.837Z,955.65
2019-02-10T04:49:45.773Z,955.75
2019-02-10T04:50:45.724Z,955.90
2019-02-10T04:51:45.634Z,955.87
2019-02-10T04:52:45.569Z,955.79
2019-02-10T04:53:45.501Z,955.77
2019-02-10T04:54:45.450Z,955.87
2019-02-10T04:55:45.371Z,955.87
2019-02-10T04:56:45.302Z,955.71
2019-02-10T04:57:45.258Z,955.57
2019-02-10T04:58:45.172Z,955.58
2019-02-10T04:59:45.103Z,955.60
2019-02-10T05:00:45.066Z,955.54
2019-02-10T05:01:44.979Z,955.51
2019-02-10T05:02:44.926Z,955.60
2019-02-10T05:03:44.842Z,955.55
2019-02-10T05:04:44.784Z,955.55
2019-02-10T05:05:44.719Z,955.58
2019-02-10T05:06:44.640Z,955.41
2019-02-10T05:07:44.574Z,955.36
2019-02-10T05:08:44.514Z,955.45
2019-02-10T05:09:44.437Z,955.35
2019-02-10T05:10:44.404Z,955.31
2019-02-10T05:11:44.326Z,955.26
2019-02-10T05:12:44.258Z,955.19
2019-02-10T05:13:44.174Z,955.21
2019-02-10T05:14:44.110Z,955.24
2019-02-10T05:15:44.054Z,955.21
2019-02-10T05:16:45.030Z,955.27
2019-02-10T05:17:43.906Z,955.40
2019-02-10T05:18:43.845Z,955.34
2019-02-10T05:19:43.781Z,955.35
2019-02-10T05:20:43.716Z,955.33
2019-02-10T05:21:43.653Z,955.29
2019-02-10T05:22:43.581Z,955.31
2019-02-10T05:23:43.510Z,955.29
2019-02-10T05:24:43.448Z,955.29
2019-02-10T05:25:43.380Z,955.31
2019-02-10T05:26:43.319Z,955.30
2019-02-10T05:27:43.250Z,955.21
2019-02-10T05:28:43.181Z,955.14
2019-02-10T05:29:43.138Z,955.07
2019-02-10T05:30:43.048Z,954.95
2019-02-10T05:31:42.998Z,954.96
2019-02-10T05:32:42.918Z,954.96
2019-02-10T05:33:42.894Z,954.92
2019-02-10T05:34:42.787Z,954.79
2019-02-10T05:35:42.720Z,954.74
2019-02-10T05:36:42.666Z,954.69
2019-02-10T05:37:42.583Z,954.65
2019-02-10T05:38:42.520Z,954.72
2019-02-10T05:39:42.453Z,954.79
2019-02-10T05:40:42.399Z,954.84
2019-02-10T05:41:42.321Z,954.78
2019-02-10T05:42:42.254Z,954.71
2019-02-10T05:43:42.194Z,954.64
2019-02-10T05:44:42.118Z,954.64
2019-02-10T05:45:42.054Z,954.59
2019-02-10T05:46:41.987Z,954.63
2019-02-10T05:47:41.929Z,954.60
2019-02-10T05:48:41.860Z,954.53
2019-02-10T05:49:41.789Z,954.50
2019-02-10T05:50:41.738Z,954.45
2019-02-10T05:51:41.655Z,954.47
2019-02-10T05:52:41.594Z,954.40
2019-02-10T05:53:41.523Z,954.30
2019-02-10T05:54:41.463Z,954.29
2019-02-10T05:55:41.396Z,954.31
2019-02-10T05:56:41.340Z,954.31
2019-02-10T05:57:41.258Z,954.24
2019-02-10T05:58:41.189Z,954.28
2019-02-10T05:59:41.123Z,954.29
2019-02-10T06:00:41.059Z,954.27
2019-02-10T06:01:41.005Z,954.24
2019-02-10T06:02:40.950Z,954.31
2019-02-10T06:03:40.875Z,954.33
2019-02-10T06:04:40.822Z,954.31
2019-02-10T06:05:40.727Z,954.37
2019-02-10T06:06:40.665Z,954.32
2019-02-10T06:07:40.624Z,954.30
2019-02-10T06:08:40.533Z,954.26
2019-02-10T06:09:40.492Z,954.26
2019-02-10T06:10:40.415Z,954.19
2019-02-10T06:11:40.354Z,954.25
2019-02-10T06:12:40.263Z,954.17
2019-02-10T06:13:40.198Z,954.17
2019-02-10T06:14:40.130Z,954.18
2019-02-10T06:15:40.070Z,954.21
2019-02-10T06:16:40.008Z,954.21
2019-02-10T06:17:39.947Z,954.22
2019-02-10T06:18:39.880Z,954.15
2019-02-10T06:19:39.801Z,954.10
2019-02-10T06:20:39.734Z,954.02
2019-02-10T06:21:39.707Z,953.98
2019-02-10T06:22:39.603Z,953.98
2019-02-10T06:23:39.545Z,953.96
2019-02-10T06:24:39.477Z,953.98
2019-02-10T06:25:39.405Z,953.95
2019-02-10T06:26:39.336Z,953.97
2019-02-10T06:27:39.326Z,953.95
2019-02-10T06:28:40.903Z,953.95
2019-02-10T06:29:39.143Z,953.92
2019-02-10T06:30:39.078Z,953.90
2019-02-10T06:31:39.049Z,953.86
2019-02-10T06:32:38.948Z,953.88
2019-02-10T06:33:38.873Z,953.85
2019-02-10T06:34:38.816Z,953.87
2019-02-10T06:35:38.743Z,953.84
2019-02-10T06:36:38.674Z,953.80
2019-02-10T06:37:38.615Z,953.79
2019-02-10T06:38:38.554Z,953.85
2019-02-10T06:39:38.494Z,953.88
2019-02-10T06:40:38.410Z,953.89
2019-02-10T06:41:38.350Z,953.93
2019-02-10T06:42:38.300Z,953.97
2019-02-10T06:43:38.217Z,954.05
2019-02-10T06:44:38.153Z,954.05
2019-02-10T06:45:38.100Z,954.05
2019-02-10T06:46:38.028Z,954.02
2019-02-10T06:47:37.946Z,954.01
2019-02-10T06:48:37.881Z,954.04
2019-02-10T06:49:37.816Z,954.12
2019-02-10T06:50:37.748Z,954.22
2019-02-10T06:51:37.690Z,954.25
2019-02-10T06:52:37.626Z,954.27
2019-02-10T06:53:37.569Z,954.20
2019-02-10T06:54:37.483Z,954.19
2019-02-10T06:55:37.418Z,954.15
2019-02-10T06:56:37.352Z,954.07
2019-02-10T06:57:37.286Z,954.06
2019-02-10T06:58:37.227Z,954.24
2019-02-10T06:59:37.158Z,954.29
2019-02-10T07:00:37.094Z,954.25
2019-02-10T07:01:37.021Z,954.15
2019-02-10T07:02:36.953Z,954.09
2019-02-10T07:03:36.893Z,954.04
2019-02-10T07:04:36.826Z,954.21
2019-02-10T07:05:36.751Z,954.27
2019-02-10T07:06:36.700Z,954.15
2019-02-10T07:07:36.639Z,954.11
2019-02-10T07:08:36.556Z,954.21
2019-02-10T07:09:36.492Z,954.22
2019-02-10T07:10:36.423Z,954.05
2019-02-10T07:11:36.367Z,954.02
2019-02-10T07:12:36.301Z,954.07
2019-02-10T07:13:36.236Z,954.13
2019-02-10T07:14:36.182Z,954.13
2019-02-10T07:15:36.095Z,954.04
2019-02-10T07:16:36.028Z,954.10
2019-02-10T07:17:36.000Z,954.10
2019-02-10T07:18:35.918Z,954.08
2019-02-10T07:19:35.846Z,953.98
2019-02-10T07:20:35.776Z,953.88
2019-02-10T07:21:35.713Z,953.87
2019-02-10T07:22:35.633Z,953.94
2019-02-10T07:23:35.572Z,954.07
2019-02-10T07:24:35.497Z,954.14
2019-02-10T07:25:35.428Z,954.11
2019-02-10T07:26:35.373Z,954.06
2019-02-10T07:27:35.304Z,953.96
2019-02-10T07:28:35.232Z,953.95
2019-02-10T07:29:35.170Z,953.83
2019-02-10T07:30:35.101Z,953.84
2019-02-10T07:31:35.034Z,953.86
2019-02-10T07:32:34.976Z,953.78
2019-02-10T07:33:34.911Z,953.74
2019-02-10T07:34:34.845Z,953.70
2019-02-10T07:35:34.800Z,953.63
2019-02-10T07:36:34.702Z,953.62
2019-02-10T07:37:34.637Z,953.51
2019-02-10T07:38:38.615Z,953.45
2019-02-10T07:39:34.509Z,953.44
2019-02-10T07:40:34.441Z,953.42
2019-02-10T07:41:34.377Z,953.41
2019-02-10T07:42:34.316Z,953.37
2019-02-10T07:43:34.241Z,953.33
2019-02-10T07:44:34.172Z,953.34
2019-02-10T07:45:34.118Z,953.35
2019-02-10T07:46:34.097Z,953.30
2019-02-10T07:47:33.973Z,953.30
2019-02-10T07:48:33.936Z,953.26
2019-02-10T07:49:33.855Z,953.23
2019-02-10T07:50:33.806Z,953.13
2019-02-10T07:51:33.713Z,953.12
2019-02-10T07:52:33.672Z,953.17
2019-02-10T07:53:33.581Z,953.17
2019-02-10T07:54:33.521Z,953.12
2019-02-10T07:55:33.468Z,953.08
2019-02-10T07:56:33.393Z,953.06
2019-02-10T07:57:33.314Z,952.98
2019-02-10T07:58:33.251Z,952.95
2019-02-10T07:59:33.186Z,953.02
2019-02-10T08:00:33.123Z,952.97
2019-02-10T08:01:33.104Z,952.97
2019-02-10T08:02:32.988Z,952.94
2019-02-10T08:03:32.940Z,952.87
2019-02-10T08:04:32.854Z,952.90
2019-02-10T08:05:32.805Z,952.93
2019-02-10T08:06:32.740Z,952.94
2019-02-10T08:07:32.664Z,952.94
2019-02-10T08:08:32.594Z,952.95
2019-02-10T08:09:32.527Z,952.88
2019-02-10T08:10:32.463Z,952.84
2019-02-10T08:11:32.394Z,952.93
2019-02-10T08:12:32.331Z,953.00
2019-02-10T08:13:33.195Z,953.13
2019-02-10T08:14:32.202Z,953.18
2019-02-10T08:15:32.135Z,953.12
2019-02-10T08:16:32.064Z,953.06
2019-02-10T08:17:32.003Z,953.11
2019-02-10T08:18:31.933Z,953.18
2019-02-10T08:19:31.926Z,953.23
2019-02-10T08:20:31.817Z,953.17
2019-02-10T08:21:31.741Z,952.99
2019-02-10T08:22:31.676Z,953.05
2019-02-10T08:23:31.608Z,953.11
2019-02-10T08:24:31.542Z,953.19
2019-02-10T08:25:31.490Z,953.10
2019-02-10T08:26:31.413Z,953.04
2019-02-10T08:27:31.387Z,953.07
2019-02-10T08:28:31.283Z,953.09
2019-02-10T08:29:31.246Z,953.03
2019-02-10T08:30:31.150Z,952.93
2019-02-10T08:31:31.086Z,952.96
2019-02-10T08:32:31.016Z,952.95
2019-02-10T08:33:30.954Z,952.87
2019-02-10T08:34:30.899Z,952.89
2019-02-10T08:35:30.818Z,952.98
2019-02-10T08:36:30.799Z,952.90
2019-02-10T08:37:30.698Z,952.81
2019-02-10T08:38:30.627Z,952.79
2019-02-10T08:39:30.578Z,952.74
2019-02-10T08:40:30.496Z,952.72
2019-02-10T08:41:30.431Z,952.63
2019-02-10T08:42:30.389Z,952.60
2019-02-10T08:43:30.312Z,952.55
2019-02-10T08:44:30.253Z,952.61
2019-02-10T08:45:30.192Z,952.58
2019-02-10T08:46:30.103Z,952.60
2019-02-10T08:47:33.785Z,952.62
2019-02-10T08:48:29.993Z,952.62
2019-02-10T08:49:29.911Z,952.59
2019-02-10T08:50:29.843Z,952.54
2019-02-10T08:51:29.788Z,952.57
2019-02-10T08:52:29.712Z,952.62
2019-02-10T08:53:29.650Z,952.66
2019-02-10T08:54:29.603Z,952.61
2019-02-10T08:55:29.518Z,952.69
2019-02-10T08:56:29.452Z,952.62
2019-02-10T08:57:29.387Z,952.57
2019-02-10T08:58:29.326Z,952.49
2019-02-10T08:59:29.261Z,952.42
2019-02-10T09:00:29.210Z,952.36
2019-02-10T09:01:29.128Z,952.35
2019-02-10T09:02:29.105Z,952.27
2019-02-10T09:03:28.997Z,952.19
2019-02-10T09:04:28.929Z,952.22
2019-02-10T09:05:28.872Z,952.23
2019-02-10T09:06:28.823Z,952.19
2019-02-10T09:07:28.738Z,952.16
2019-02-10T09:08:28.676Z,952.03
2019-02-10T09:09:28.604Z,952.00
2019-02-10T09:10:28.546Z,952.01
2019-02-10T09:11:28.476Z,952.01
2019-02-10T09:12:28.408Z,951.93
2019-02-10T09:13:28.346Z,951.87
2019-02-10T09:14:28.282Z,951.77
2019-02-10T09:15:28.229Z,951.72
2019-02-10T09:16:28.153Z,951.66
2019-02-10T09:17:28.086Z,951.64
2019-02-10T09:18:28.026Z,951.57
2019-02-10T09:19:27.965Z,951.61
2019-02-10T09:20:27.927Z,951.55
2019-02-10T09:21:27.847Z,951.50
2019-02-10T09:22:27.784Z,951.54
2019-02-10T09:23:27.697Z,951.54
2019-02-10T09:24:27.636Z,951.47
2019-02-10T09:25:27.575Z,951.40
2019-02-10T09:26:27.505Z,951.33
2019-02-10T09:27:27.438Z,951.35
2019-02-10T09:28:27.379Z,951.29
2019-02-10T09:29:27.317Z,951.27
2019-02-10T09:30:27.256Z,951.24
2019-02-10T09:31:27.204Z,951.21
2019-02-10T09:32:27.119Z,951.24
2019-02-10T09:33:27.050Z,951.25
2019-02-10T09:34:26.990Z,951.17
2019-02-10T09:35:26.924Z,951.11
2019-02-10T09:36:26.863Z,951.15
2019-02-10T09:37:26.795Z,951.15
2019-02-10T09:38:26.733Z,951.21
2019-02-10T09:39:26.674Z,951.14
2019-02-10T09:40:26.619Z,951.08
2019-02-10T09:41:26.541Z,951.05
2019-02-10T09:42:26.473Z,951.01
2019-02-10T09:43:26.411Z,950.89
2019-02-10T09:44:26.367Z,950.93
2019-02-10T09:45:26.283Z,950.97
2019-02-10T09:46:26.216Z,950.93
2019-02-10T09:47:26.152Z,950.93
2019-02-10T09:48:26.089Z,951.01
2019-02-10T09:49:26.026Z,951.07
2019-02-10T09:50:25.962Z,951.12
2019-02-10T09:51:25.916Z,951.14
2019-02-10T09:52:25.856Z,951.03
2019-02-10T09:53:25.775Z,950.99
2019-02-10T09:54:25.712Z,950.92
2019-02-10T09:55:25.639Z,950.92
2019-02-10T09:56:25.576Z,950.86
2019-02-10T09:57:25.540Z,950.89
2019-02-10T09:58:25.449Z,950.86
2019-02-10T09:59:25.385Z,950.81
2019-02-10T10:00:25.321Z,950.75
2019-02-10T10:01:25.255Z,950.73
2019-02-10T10:02:25.194Z,950.74
2019-02-10T10:03:25.130Z,950.72
2019-02-10T10:04:25.079Z,950.75
2019-02-10T10:05:25.014Z,950.72
2019-02-10T10:06:24.952Z,950.66
2019-02-10T10:07:24.879Z,950.61
2019-02-10T10:08:24.805Z,950.62
2019-02-10T10:09:24.747Z,950.63
2019-02-10T10:10:24.694Z,950.60
2019-02-10T10:11:24.620Z,950.58
2019-02-10T10:12:24.558Z,950.53
2019-02-10T10:13:24.493Z,950.46
2019-02-10T10:14:30.696Z,950.40
2019-02-10T10:15:24.365Z,950.38
2019-02-10T10:16:24.335Z,950.31
2019-02-10T10:17:24.254Z,950.33
2019-02-10T10:18:24.181Z,950.33
2019-02-10T10:19:24.113Z,950.28
2019-02-10T10:20:24.058Z,950.22
2019-02-10T10:21:23.994Z,950.17
2019-02-10T10:22:23.926Z,950.14
2019-02-10T10:23:23.903Z,950.19
2019-02-10T10:24:23.793Z,950.19
2019-02-10T10:25:23.732Z,950.28
2019-02-10T10:26:23.678Z,950.25
2019-02-10T10:27:23.629Z,950.21
2019-02-10T10:28:23.543Z,950.21
2019-02-10T10:29:23.509Z,950.21
2019-02-10T10:30:23.420Z,950.18
2019-02-10T10:31:23.467Z,950.15
2019-02-10T10:32:23.292Z,950.18
2019-02-10T10:33:23.225Z,950.21
2019-02-10T10:34:23.165Z,950.22
2019-02-10T10:35:23.103Z,950.20
2019-02-10T10:36:23.059Z,950.22
2019-02-10T10:37:22.975Z,950.23
2019-02-10T10:38:22.916Z,950.26
2019-02-10T10:39:27.394Z,950.21
2019-02-10T10:40:22.794Z,950.17
2019-02-10T10:41:22.722Z,950.16
2019-02-10T10:42:22.685Z,950.12
2019-02-10T10:43:22.596Z,950.16
2019-02-10T10:44:22.539Z,950.18
2019-02-10T10:45:22.492Z,950.15
2019-02-10T10:46:22.413Z,950.21
2019-02-10T10:47:22.350Z,950.21
2019-02-10T10:48:22.285Z,950.28
2019-02-10T10:49:22.221Z,950.27
2019-02-10T10:50:22.159Z,950.26
2019-02-10T10:51:22.097Z,950.22
2019-02-10T10:52:22.035Z,950.26
2019-02-10T10:53:21.971Z,950.32
2019-02-10T10:54:21.914Z,950.23
2019-02-10T10:55:21.849Z,950.13
2019-02-10T10:56:21.787Z,950.12
2019-02-10T10:57:21.721Z,950.10
2019-02-10T10:58:21.665Z,950.08
2019-02-10T10:59:21.599Z,950.04
2019-02-10T11:00:21.533Z,950.00
2019-02-10T11:01:25.424Z,949.89
2019-02-10T11:02:21.408Z,949.90
2019-02-10T11:03:21.346Z,949.87
2019-02-10T11:04:21.313Z,949.80
2019-02-10T11:05:21.230Z,949.73
2019-02-10T11:06:21.167Z,949.69
2019-02-10T11:07:21.097Z,949.67
2019-02-10T11:08:21.028Z,949.70
2019-02-10T11:09:20.970Z,949.68
2019-02-10T11:10:20.904Z,949.68
2019-02-10T11:11:20.841Z,949.56
2019-02-10T11:12:20.780Z,949.52
2019-02-10T11:13:20.731Z,949.50
2019-02-10T11:14:20.656Z,949.53
2019-02-10T11:15:20.595Z,949.50
2019-02-10T11:16:20.550Z,949.49
2019-02-10T11:17:20.499Z,949.49
2019-02-10T11:18:20.405Z,949.48
2019-02-10T11:19:20.359Z,949.44
2019-02-10T11:20:20.281Z,949.47
2019-02-10T11:21:20.216Z,949.46
2019-02-10T11:22:20.188Z,949.47
2019-02-10T11:23:20.092Z,949.43
2019-02-10T11:24:20.031Z,949.46
2019-02-10T11:25:19.967Z,949.36
2019-02-10T11:26:19.945Z,949.33
2019-02-10T11:27:19.846Z,949.39
2019-02-10T11:28:19.780Z,949.30
2019-02-10T11:29:19.725Z,949.35
2019-02-10T11:30:19.660Z,949.36
2019-02-10T11:31:19.593Z,949.26
2019-02-10T11:32:19.555Z,949.21
2019-02-10T11:33:19.467Z,949.21
2019-02-10T11:34:19.413Z,949.13
2019-02-10T11:35:19.355Z,949.12
2019-02-10T11:36:19.278Z,949.10
2019-02-10T11:37:26.575Z,949.06
2019-02-10T11:38:19.156Z,949.06
2019-02-10T11:39:19.090Z,949.07
2019-02-10T11:40:19.030Z,949.00
2019-02-10T11:41:18.994Z,948.98
2019-02-10T11:42:18.902Z,948.95
2019-02-10T11:43:18.843Z,948.89
2019-02-10T11:44:18.780Z,948.85
2019-02-10T11:45:18.733Z,948.76
2019-02-10T11:46:18.660Z,948.67
2019-02-10T11:47:18.594Z,948.72
2019-02-10T11:48:18.534Z,948.65
2019-02-10T11:49:18.485Z,948.58
2019-02-10T11:50:18.406Z,948.54
2019-02-10T11:51:18.362Z,948.54
2019-02-10T11:52:18.282Z,948.53
2019-02-10T11:53:18.219Z,948.49
2019-02-10T11:54:18.157Z,948.37
2019-02-10T11:55:18.094Z,948.35
2019-02-10T11:56:18.030Z,948.26
2019-02-10T11:57:18.001Z,948.20
2019-02-10T11:58:17.910Z,948.07
2019-02-10T11:59:17.846Z,948.04
2019-02-10T12:00:17.797Z,948.02
2019-02-10T12:01:17.725Z,947.99
2019-02-10T12:02:17.664Z,947.97
2019-02-10T12:03:17.601Z,947.91
2019-02-10T12:04:17.528Z,947.92
2019-02-10T12:05:17.489Z,947.91
2019-02-10T12:06:17.412Z,947.88
2019-02-10T12:07:17.343Z,947.72
2019-02-10T12:08:17.280Z,947.67
2019-02-10T12:09:17.241Z,947.79
2019-02-10T12:10:17.154Z,947.77
2019-02-10T12:11:17.096Z,947.80
2019-02-10T12:12:17.055Z,947.71
2019-02-10T12:13:16.971Z,947.66
2019-02-10T12:14:16.909Z,947.64
2019-02-10T12:15:16.851Z,947.60
2019-02-10T12:16:16.784Z,947.62
2019-02-10T12:17:16.722Z,947.58
2019-02-10T12:18:16.660Z,947.52
2019-02-10T12:19:16.599Z,947.49
2019-02-10T12:20:16.536Z,947.51
2019-02-10T12:21:16.476Z,947.47
2019-02-10T12:22:16.431Z,947.40
2019-02-10T12:23:16.350Z,947.36
2019-02-10T12:24:16.294Z,947.31
2019-02-10T12:25:16.227Z,947.29
2019-02-10T12:26:16.167Z,947.33
2019-02-10T12:27:16.100Z,947.31